createdAt,value
2017-09-05T00:01:36.575Z,99325
2017-09-05T00:04:04.682Z,99325
2017-09-05T00:06:32.775Z,99325
2017-09-05T00:12:24.266Z,99327
2017-09-05T00:18:04.951Z,99334
2017-09-05T00:20:35.889Z,99333
2017-09-05T00:23:06.424Z,99338
2017-09-05T00:25:34.527Z,99346
2017-09-05T00:28:02.633Z,99340
2017-09-05T00:30:30.725Z,99343
2017-09-05T00:32:58.820Z,99337
2017-09-05T00:35:27.905Z,99333
2017-09-05T00:37:56.026Z,99342
2017-09-05T00:40:24.120Z,99328
2017-09-05T00:42:52.211Z,99334
2017-09-05T00:45:20.320Z,99339
2017-09-05T00:47:48.425Z,99333
2017-09-05T00:50:16.540Z,99330
2017-09-05T00:52:44.648Z,99325
2017-09-05T00:55:12.752Z,99327
2017-09-05T00:57:40.861Z,99325
2017-09-05T01:00:08.961Z,99323
2017-09-05T01:02:37.158Z,99317
2017-09-05T01:05:05.264Z,99325
2017-09-05T01:07:33.339Z,99324
2017-09-05T01:10:01.458Z,99328
2017-09-05T01:12:29.553Z,99329
2017-09-05T01:14:58.600Z,99326
2017-09-05T01:17:26.713Z,99334
2017-09-05T01:19:54.814Z,99320
2017-09-05T01:22:22.911Z,99329
2017-09-05T01:24:51.001Z,99326
2017-09-05T01:27:19.106Z,99326
2017-09-05T01:29:47.199Z,99326
2017-09-05T01:32:15.305Z,99326
2017-09-05T01:34:43.414Z,99330
2017-09-05T01:37:11.508Z,99324
2017-09-05T01:39:39.601Z,99332
2017-09-05T01:42:07.756Z,99336
2017-09-05T01:44:35.860Z,99336
2017-09-05T01:47:03.969Z,99334
2017-09-05T01:49:32.061Z,99346
2017-09-05T01:52:00.164Z,99333
2017-09-05T01:54:28.272Z,99330
2017-09-05T01:56:56.363Z,99326
2017-09-05T01:59:24.483Z,99328
2017-09-05T02:01:52.575Z,99326
2017-09-05T02:04:21.622Z,99322
2017-09-05T02:06:49.707Z,99326
2017-09-05T02:09:17.816Z,99319
2017-09-05T02:11:45.900Z,99322
2017-09-05T02:14:13.991Z,99326
2017-09-05T02:16:42.087Z,99335
2017-09-05T02:19:10.173Z,99337
2017-09-05T02:21:38.273Z,99330
2017-09-05T02:24:06.373Z,99332
2017-09-05T02:26:34.480Z,99327
2017-09-05T02:29:02.567Z,99328
2017-09-05T02:31:30.677Z,99323
2017-09-05T02:33:58.776Z,99327
2017-09-05T02:36:26.884Z,99325
2017-09-05T02:38:54.990Z,99319
2017-09-05T02:41:23.088Z,99320
2017-09-05T02:43:51.191Z,99312
2017-09-05T02:46:19.288Z,99312
2017-09-05T02:48:47.378Z,99316
2017-09-05T02:51:15.465Z,99325
2017-09-05T02:53:43.556Z,99315
2017-09-05T02:56:11.662Z,99321
2017-09-05T02:58:39.768Z,99312
2017-09-05T03:01:07.857Z,99313
2017-09-05T03:03:35.964Z,99309
2017-09-05T03:06:04.051Z,99321
2017-09-05T03:08:32.148Z,99312
2017-09-05T03:11:00.244Z,99324
2017-09-05T03:13:28.349Z,99317
2017-09-05T03:15:56.452Z,99311
2017-09-05T03:18:24.561Z,99314
2017-09-05T03:20:52.650Z,99316
2017-09-05T03:23:20.764Z,99322
2017-09-05T03:25:48.855Z,99319
2017-09-05T03:28:16.953Z,99307
2017-09-05T03:30:45.800Z,99310
2017-09-05T03:33:13.970Z,99314
2017-09-05T03:35:42.064Z,99315
2017-09-05T03:38:10.161Z,99325
2017-09-05T03:40:38.269Z,99317
2017-09-05T03:43:06.375Z,99321
2017-09-05T03:45:34.472Z,99321
2017-09-05T03:48:02.564Z,99327
2017-09-05T03:50:30.680Z,99324
2017-09-05T03:52:58.767Z,99320
2017-09-05T03:55:26.864Z,99316
2017-09-05T03:57:54.956Z,99326
2017-09-05T04:00:23.048Z,99319
2017-09-05T04:02:51.144Z,99321
2017-09-05T04:05:19.256Z,99328
2017-09-05T04:07:47.350Z,99334
2017-09-05T04:10:15.496Z,99330
2017-09-05T04:12:43.568Z,99337
2017-09-05T04:15:11.669Z,99329
2017-09-05T04:17:39.764Z,99326
2017-09-05T04:20:07.856Z,99341
2017-09-05T04:22:35.967Z,99336
2017-09-05T04:25:04.060Z,99332
2017-09-05T04:27:32.156Z,99333
2017-09-05T04:30:00.248Z,99340
2017-09-05T04:32:28.361Z,99337
2017-09-05T04:34:56.464Z,99337
2017-09-05T04:37:24.583Z,99341
2017-09-05T04:39:52.682Z,99331
2017-09-05T04:42:20.776Z,99335
2017-09-05T04:44:48.879Z,99340
2017-09-05T04:47:17.002Z,99342
2017-09-05T04:49:45.081Z,99337
2017-09-05T04:52:13.172Z,99341
2017-09-05T04:54:41.239Z,99346
2017-09-05T04:57:09.311Z,99341
2017-09-05T04:59:37.395Z,99335
2017-09-05T05:02:05.467Z,99343
2017-09-05T05:04:33.565Z,99350
2017-09-05T05:07:01.663Z,99345
2017-09-05T05:09:29.734Z,99353
2017-09-05T05:11:57.803Z,99353
2017-09-05T05:14:25.903Z,99355
2017-09-05T05:16:53.996Z,99348
2017-09-05T05:19:22.070Z,99348
2017-09-05T05:21:50.171Z,99350
2017-09-05T05:24:18.271Z,99351
2017-09-05T05:26:46.347Z,99354
2017-09-05T05:29:14.431Z,99346
2017-09-05T05:31:42.532Z,99354
2017-09-05T05:34:10.607Z,99346
2017-09-05T05:36:38.721Z,99351
2017-09-05T05:39:06.790Z,99355
2017-09-05T05:41:34.881Z,99345
2017-09-05T05:44:02.964Z,99356
2017-09-05T05:46:31.056Z,99362
2017-09-05T05:48:59.131Z,99364
2017-09-05T05:51:27.210Z,99352
2017-09-05T05:53:55.283Z,99356
2017-09-05T05:56:23.366Z,99355
2017-09-05T05:58:51.448Z,99355
2017-09-05T06:01:19.539Z,99364
2017-09-05T06:03:47.606Z,99353
2017-09-05T06:06:15.703Z,99349
2017-09-05T06:08:43.778Z,99336
2017-09-05T06:11:11.867Z,99348
2017-09-05T06:13:39.952Z,99359
2017-09-05T06:16:08.026Z,99363
2017-09-05T06:18:36.144Z,99360
2017-09-05T06:21:04.221Z,99355
2017-09-05T06:23:32.332Z,99358
2017-09-05T06:26:00.403Z,99351
2017-09-05T06:28:28.492Z,99352
2017-09-05T06:30:56.571Z,99349
2017-09-05T06:33:24.655Z,99345
2017-09-05T06:35:52.736Z,99343
2017-09-05T06:38:20.828Z,99352
2017-09-05T06:40:49.156Z,99353
2017-09-05T06:43:17.243Z,99353
2017-09-05T06:45:45.328Z,99341
2017-09-05T06:48:13.426Z,99349
2017-09-05T06:50:41.499Z,99346
2017-09-05T06:53:09.575Z,99354
2017-09-05T06:55:37.668Z,99348
2017-09-05T06:58:05.745Z,99341
2017-09-05T07:00:33.831Z,99341
2017-09-05T07:03:01.963Z,99345
2017-09-05T07:05:30.042Z,99339
2017-09-05T07:07:58.120Z,99332
2017-09-05T07:10:26.250Z,99338
2017-09-05T07:12:54.327Z,99336
2017-09-05T07:15:24.421Z,99336
2017-09-05T07:17:52.501Z,99343
2017-09-05T07:20:20.588Z,99349
2017-09-05T07:22:48.661Z,99343
2017-09-05T07:25:16.743Z,99350
2017-09-05T07:27:44.811Z,99348
2017-09-05T07:30:12.893Z,99359
2017-09-05T07:32:40.959Z,99355
2017-09-05T07:35:09.049Z,99357
2017-09-05T07:37:37.124Z,99357
2017-09-05T07:40:05.211Z,99361
2017-09-05T07:42:33.295Z,99360
2017-09-05T07:45:01.379Z,99355
2017-09-05T07:47:29.469Z,99362
2017-09-05T07:49:57.549Z,99350
2017-09-05T07:52:25.631Z,99346
2017-09-05T07:54:53.711Z,99357
2017-09-05T07:57:21.805Z,99347
2017-09-05T07:59:49.879Z,99340
2017-09-05T08:02:17.981Z,99344
2017-09-05T08:04:46.060Z,99346
2017-09-05T08:07:14.137Z,99352
2017-09-05T08:09:42.224Z,99349
2017-09-05T08:12:10.304Z,99347
2017-09-05T08:14:38.374Z,99354
2017-09-05T08:17:07.168Z,99354
2017-09-05T08:19:35.243Z,99356
2017-09-05T08:22:03.316Z,99351
2017-09-05T08:24:31.396Z,99351
2017-09-05T08:26:59.479Z,99357
2017-09-05T08:29:27.559Z,99355
2017-09-05T08:31:55.641Z,99348
2017-09-05T08:34:23.718Z,99353
2017-09-05T08:36:51.788Z,99358
2017-09-05T08:39:19.871Z,99355
2017-09-05T08:41:47.960Z,99357
2017-09-05T08:44:16.031Z,99356
2017-09-05T08:46:44.112Z,99366
2017-09-05T08:49:12.195Z,99356
2017-09-05T08:51:40.488Z,99346
2017-09-05T08:54:08.581Z,99353
2017-09-05T08:56:36.647Z,99351
2017-09-05T08:59:04.726Z,99345
2017-09-05T09:01:33.016Z,99345
2017-09-05T09:04:01.102Z,99346
2017-09-05T09:06:29.188Z,99339
2017-09-05T09:08:57.263Z,99343
2017-09-05T09:11:25.355Z,99329
2017-09-05T09:13:53.423Z,99318
2017-09-05T09:16:21.512Z,99316
2017-09-05T09:18:49.582Z,99325
2017-09-05T09:21:17.681Z,99323
2017-09-05T09:23:45.751Z,99327
2017-09-05T09:26:13.845Z,99326
2017-09-05T09:28:41.919Z,99321
2017-09-05T09:31:10.012Z,99320
2017-09-05T09:33:38.075Z,99318
2017-09-05T09:36:06.167Z,99326
2017-09-05T09:38:34.296Z,99326
2017-09-05T09:41:02.363Z,99321
2017-09-05T09:43:30.462Z,99328
2017-09-05T09:45:58.540Z,99323
2017-09-05T09:48:26.664Z,99321
2017-09-05T09:50:54.731Z,99313
2017-09-05T09:53:22.799Z,99321
2017-09-05T09:55:50.868Z,99308
2017-09-05T09:58:18.965Z,99312
2017-09-05T10:00:47.031Z,99297
2017-09-05T10:03:15.117Z,99306
2017-09-05T10:05:43.205Z,99305
2017-09-05T10:08:11.296Z,99310
2017-09-05T10:10:39.363Z,99294
2017-09-05T10:13:07.440Z,99296
2017-09-05T10:15:35.519Z,99293
2017-09-05T10:18:03.591Z,99290
2017-09-05T10:20:31.667Z,99289
2017-09-05T10:22:59.759Z,99286
2017-09-05T10:25:27.835Z,99279
2017-09-05T10:27:55.896Z,99282
2017-09-05T10:30:23.967Z,99284
2017-09-05T10:32:52.043Z,99275
2017-09-05T10:35:20.120Z,99278
2017-09-05T10:37:48.199Z,99269
2017-09-05T10:40:16.285Z,99271
2017-09-05T10:42:44.368Z,99276
2017-09-05T10:45:12.528Z,99273
2017-09-05T10:47:40.562Z,99266
2017-09-05T10:50:08.640Z,99262
2017-09-05T10:52:36.724Z,99267
2017-09-05T10:55:04.808Z,99270
2017-09-05T10:57:32.887Z,99256
2017-09-05T11:00:00.968Z,99248
2017-09-05T11:02:29.051Z,99251
2017-09-05T11:04:57.170Z,99251
2017-09-05T11:07:25.252Z,99247
2017-09-05T11:09:53.321Z,99244
2017-09-05T11:12:21.407Z,99242
2017-09-05T11:14:49.476Z,99246
2017-09-05T11:17:17.597Z,99240
2017-09-05T11:19:45.678Z,99241
2017-09-05T11:22:13.757Z,99227
2017-09-05T11:24:41.855Z,99239
2017-09-05T11:27:09.952Z,99229
2017-09-05T11:29:38.030Z,99221
2017-09-05T11:32:06.091Z,99236
2017-09-05T11:34:34.379Z,99230
2017-09-05T11:37:02.452Z,99231
2017-09-05T11:39:30.580Z,99217
2017-09-05T11:41:58.648Z,99223
2017-09-05T11:44:27.279Z,99218
2017-09-05T11:46:55.623Z,99215
2017-09-05T11:49:23.708Z,99212
2017-09-05T11:51:51.784Z,99211
2017-09-05T11:54:19.863Z,99208
2017-09-05T11:56:47.964Z,99212
2017-09-05T11:59:16.050Z,99207
2017-09-05T12:01:44.123Z,99203
2017-09-05T12:04:12.218Z,99186
2017-09-05T12:06:40.297Z,99190
2017-09-05T12:09:08.403Z,99198
2017-09-05T12:11:36.499Z,99192
2017-09-05T12:14:04.576Z,99188
2017-09-05T12:16:32.663Z,99189
2017-09-05T12:19:00.753Z,99192
2017-09-05T12:21:28.840Z,99191
2017-09-05T12:23:56.911Z,99186
2017-09-05T12:26:25.004Z,99195
2017-09-05T12:28:53.073Z,99188
2017-09-05T12:31:21.168Z,99182
2017-09-05T12:33:49.247Z,99190
2017-09-05T12:36:17.527Z,99184
2017-09-05T12:38:45.597Z,99183
2017-09-05T12:41:13.705Z,99172
2017-09-05T12:43:41.784Z,99173
2017-09-05T12:46:09.884Z,99177
2017-09-05T12:48:37.972Z,99176
2017-09-05T12:51:06.082Z,99170
2017-09-05T12:53:34.171Z,99165
2017-09-05T12:56:02.259Z,99167
2017-09-05T12:58:30.361Z,99166
2017-09-05T13:00:58.439Z,99170
2017-09-05T13:03:26.519Z,99164
2017-09-05T13:05:54.609Z,99163
2017-09-05T13:08:22.705Z,99165
2017-09-05T13:10:50.786Z,99165
2017-09-05T13:13:18.883Z,99163
2017-09-05T13:15:46.959Z,99159
2017-09-05T13:18:15.049Z,99156
2017-09-05T13:20:43.140Z,99161
2017-09-05T13:23:11.250Z,99156
2017-09-05T13:25:39.328Z,99149
2017-09-05T13:28:07.424Z,99147
2017-09-05T13:30:35.592Z,99148
2017-09-05T13:33:04.596Z,99148
2017-09-05T13:35:32.696Z,99150
2017-09-05T13:38:00.826Z,99138
2017-09-05T13:40:28.959Z,99142
2017-09-05T13:42:57.126Z,99136
2017-09-05T13:45:25.225Z,99139
2017-09-05T13:47:53.357Z,99145
2017-09-05T13:50:21.481Z,99141
2017-09-05T13:52:49.606Z,99136
2017-09-05T13:55:17.685Z,99140
2017-09-05T13:57:45.875Z,99143
2017-09-05T14:00:13.979Z,99141
2017-09-05T14:02:42.076Z,99138
2017-09-05T14:05:10.205Z,99138
2017-09-05T14:07:38.280Z,99133
2017-09-05T14:10:06.371Z,99130
2017-09-05T14:12:34.483Z,99128
2017-09-05T14:15:02.564Z,99127
2017-09-05T14:17:30.710Z,99130
2017-09-05T14:19:58.887Z,99128
2017-09-05T14:22:26.973Z,99129
2017-09-05T14:24:55.050Z,99128
2017-09-05T14:27:23.160Z,99130
2017-09-05T14:29:51.258Z,99124
2017-09-05T14:32:19.352Z,99125
2017-09-05T14:34:47.438Z,99128
2017-09-05T14:37:15.585Z,99120
2017-09-05T14:39:43.665Z,99112
2017-09-05T14:42:11.775Z,99103
2017-09-05T14:44:39.901Z,99099
2017-09-05T14:47:07.989Z,99087
2017-09-05T14:49:36.312Z,99096
2017-09-05T14:52:05.173Z,99096
2017-09-05T14:54:33.274Z,99094
2017-09-05T14:57:01.377Z,99097
2017-09-05T14:59:29.476Z,99102
2017-09-05T15:01:57.601Z,99096
2017-09-05T15:04:26.112Z,99096
2017-09-05T15:06:54.181Z,99098
2017-09-05T15:09:22.256Z,99092
2017-09-05T15:11:50.327Z,99097
2017-09-05T15:14:18.452Z,99098
2017-09-05T15:16:46.533Z,99092
2017-09-05T15:19:14.614Z,99094
2017-09-05T15:21:42.692Z,99094
2017-09-05T15:24:10.759Z,99093
2017-09-05T15:26:38.845Z,99090
2017-09-05T15:29:06.916Z,99091
2017-09-05T15:31:34.992Z,99092
2017-09-05T15:34:03.078Z,99094
2017-09-05T15:36:31.163Z,99086
2017-09-05T15:38:59.246Z,99088
2017-09-05T15:41:27.337Z,99082
2017-09-05T15:43:55.428Z,99083
2017-09-05T15:46:23.510Z,99081
2017-09-05T15:48:51.579Z,99083
2017-09-05T15:51:19.667Z,99086
2017-09-05T15:53:47.782Z,99082
2017-09-05T15:56:15.867Z,99078
2017-09-05T15:58:43.949Z,99086
2017-09-05T16:01:12.088Z,99083
2017-09-05T16:03:40.174Z,99078
2017-09-05T16:06:08.245Z,99083
2017-09-05T16:08:36.337Z,99081
2017-09-05T16:11:04.484Z,99079
2017-09-05T16:13:32.620Z,99086
2017-09-05T16:16:00.773Z,99077
2017-09-05T16:18:28.871Z,99085
2017-09-05T16:20:56.947Z,99084
2017-09-05T16:23:25.093Z,99081
2017-09-05T16:25:53.256Z,99089
2017-09-05T16:28:21.343Z,99084
2017-09-05T16:30:49.482Z,99083
2017-09-05T16:33:17.555Z,99086
2017-09-05T16:35:45.683Z,99080
2017-09-05T16:38:13.829Z,99079
2017-09-05T16:40:41.955Z,99076
2017-09-05T16:43:10.093Z,99073
2017-09-05T16:45:38.160Z,99070
2017-09-05T16:48:06.223Z,99064
2017-09-05T16:50:34.433Z,99065
2017-09-05T16:53:02.487Z,99074
2017-09-05T16:55:30.628Z,99080
2017-09-05T16:57:58.683Z,99065
2017-09-05T17:00:26.962Z,99070
2017-09-05T17:02:55.224Z,99063
2017-09-05T17:05:23.485Z,99072
2017-09-05T17:07:51.630Z,99067
2017-09-05T17:10:19.818Z,99063
2017-09-05T17:12:47.970Z,99065
2017-09-05T17:15:16.112Z,99061
2017-09-05T17:17:44.253Z,99068
2017-09-05T17:20:12.414Z,99066
2017-09-05T17:22:40.582Z,99060
2017-09-05T17:25:08.745Z,99059
2017-09-05T17:27:36.899Z,99056
2017-09-05T17:30:05.032Z,99055
2017-09-05T17:32:33.312Z,99060
2017-09-05T17:35:01.589Z,99050
2017-09-05T17:37:29.851Z,99054
2017-09-05T17:39:58.232Z,99053
2017-09-05T17:42:26.520Z,99043
2017-09-05T17:44:54.788Z,99048
2017-09-05T17:47:23.061Z,99054
2017-09-05T17:49:51.273Z,99053
2017-09-05T17:52:19.558Z,99051
2017-09-05T17:54:47.698Z,99062
2017-09-05T17:57:15.946Z,99064
2017-09-05T17:59:44.181Z,99065
2017-09-05T18:02:12.328Z,99061
2017-09-05T18:04:40.616Z,99062
2017-09-05T18:07:08.779Z,99067
2017-09-05T18:09:37.062Z,99062
2017-09-05T18:12:05.202Z,99064
2017-09-05T18:14:33.480Z,99072
2017-09-05T18:17:01.752Z,99078
2017-09-05T18:19:30.036Z,99078
2017-09-05T18:21:58.312Z,99067
2017-09-05T18:24:27.222Z,99069
2017-09-05T18:26:55.389Z,99071
2017-09-05T18:29:23.650Z,99070
2017-09-05T18:31:51.785Z,99074
2017-09-05T18:34:20.062Z,99077
2017-09-05T18:36:48.205Z,99070
2017-09-05T18:39:16.483Z,99070
2017-09-05T18:41:44.734Z,99073
2017-09-05T18:44:12.923Z,99076
2017-09-05T18:46:41.041Z,99081
2017-09-05T18:49:09.111Z,99087
2017-09-05T18:51:37.246Z,99094
2017-09-05T18:54:05.384Z,99092
2017-09-05T18:56:33.771Z,99091
2017-09-05T18:59:02.027Z,99092
2017-09-05T19:01:30.176Z,99096
2017-09-05T19:03:58.253Z,99099
2017-09-05T19:06:26.520Z,99097
2017-09-05T19:08:54.779Z,99096
2017-09-05T19:11:22.916Z,99098
2017-09-05T19:13:50.975Z,99102
2017-09-05T19:16:19.247Z,99103
2017-09-05T19:18:47.508Z,99093
2017-09-05T19:21:15.589Z,99094
2017-09-05T19:23:43.711Z,99096
2017-09-05T19:26:11.841Z,99097
2017-09-05T19:28:40.102Z,99095
2017-09-05T19:31:08.163Z,99101
2017-09-05T19:33:36.445Z,99094
2017-09-05T19:36:04.531Z,99091
2017-09-05T19:38:32.808Z,99094
2017-09-05T19:41:00.959Z,99095
2017-09-05T19:43:29.090Z,99092
2017-09-05T19:45:57.366Z,99094
2017-09-05T19:48:25.660Z,99091
2017-09-05T19:50:53.918Z,99086
2017-09-05T19:53:22.059Z,99095
2017-09-05T19:55:50.194Z,99091
2017-09-05T19:58:18.311Z,99091
2017-09-05T20:00:46.572Z,99092
2017-09-05T20:03:14.840Z,99089
2017-09-05T20:05:42.990Z,99094
2017-09-05T20:08:11.249Z,99095
2017-09-05T20:10:39.507Z,99104
2017-09-05T20:13:07.774Z,99106
2017-09-05T20:15:35.910Z,99113
2017-09-05T20:18:04.049Z,99110
2017-09-05T20:20:32.119Z,99114
2017-09-05T20:23:00.382Z,99107
2017-09-05T20:25:28.532Z,99113
2017-09-05T20:27:56.592Z,99118
2017-09-05T20:30:24.737Z,99112
2017-09-05T20:32:52.869Z,99112
2017-09-05T20:35:21.020Z,99107
2017-09-05T20:37:49.140Z,99095
2017-09-05T20:40:17.208Z,99099
2017-09-05T20:42:45.339Z,99100
2017-09-05T20:45:13.462Z,99097
2017-09-05T20:47:41.615Z,99099
2017-09-05T20:50:09.732Z,99103
2017-09-05T20:52:37.878Z,99096
2017-09-05T20:55:06.009Z,99092
2017-09-05T20:57:34.087Z,99083
2017-09-05T21:00:02.219Z,99088
2017-09-05T21:02:30.321Z,99089
2017-09-05T21:04:58.448Z,99084
2017-09-05T21:07:26.525Z,99084
2017-09-05T21:09:54.660Z,99080
2017-09-05T21:12:22.727Z,99081
2017-09-05T21:14:50.883Z,99077
2017-09-05T21:17:19.029Z,99073
2017-09-05T21:19:47.153Z,99073
2017-09-05T21:22:15.213Z,99074
2017-09-05T21:24:43.283Z,99065
2017-09-05T21:27:11.412Z,99059
2017-09-05T21:29:39.501Z,99061
2017-09-05T21:32:07.637Z,99060
2017-09-05T21:34:35.712Z,99060
2017-09-05T21:37:03.841Z,99053
2017-09-05T21:39:31.998Z,99050
2017-09-05T21:42:00.157Z,99049
2017-09-05T21:44:28.449Z,99043
2017-09-05T21:46:56.515Z,99037
2017-09-05T21:49:24.591Z,99027
2017-09-05T21:51:52.672Z,99032
2017-09-05T21:54:20.831Z,99024
2017-09-05T21:56:49.457Z,99029
2017-09-05T21:59:17.541Z,99038
2017-09-05T22:01:45.644Z,99033
2017-09-05T22:04:13.731Z,99029
2017-09-05T22:06:41.882Z,99029
2017-09-05T22:09:09.969Z,99032
2017-09-05T22:11:38.069Z,99025
2017-09-05T22:14:11.679Z,99026
2017-09-05T22:16:41.713Z,99033
2017-09-05T22:19:15.422Z,99040
2017-09-05T22:21:43.508Z,99029
2017-09-05T22:24:11.603Z,99029
2017-09-05T22:29:40.415Z,99031
2017-09-05T22:32:08.505Z,99029
2017-09-05T22:34:36.583Z,99021
2017-09-05T22:37:04.670Z,99020
2017-09-05T22:39:32.758Z,99019
2017-09-05T22:42:00.854Z,99030
2017-09-05T22:44:28.929Z,99029
2017-09-05T22:46:57.020Z,99019
2017-09-05T22:49:25.102Z,99022
2017-09-05T22:51:53.192Z,99019
2017-09-05T22:54:21.268Z,99023
2017-09-05T22:56:49.368Z,99019
2017-09-05T22:59:17.496Z,99019
2017-09-05T23:01:45.588Z,99019
2017-09-05T23:04:13.665Z,99015
2017-09-05T23:06:41.752Z,99014
2017-09-05T23:09:09.843Z,99011
2017-09-05T23:11:37.928Z,99016
2017-09-05T23:14:06.028Z,99005
2017-09-05T23:16:34.104Z,99004
2017-09-05T23:19:02.188Z,98999
2017-09-05T23:21:30.260Z,99002
2017-09-05T23:23:58.348Z,98998
2017-09-05T23:26:26.443Z,98994
2017-09-05T23:28:54.529Z,98987
2017-09-05T23:31:22.606Z,98991
2017-09-05T23:33:50.696Z,98980
2017-09-05T23:36:18.784Z,98992
2017-09-05T23:38:46.877Z,98991
2017-09-05T23:41:14.951Z,98984
2017-09-05T23:43:43.059Z,98983
2017-09-05T23:46:11.129Z,98984
2017-09-05T23:48:39.226Z,98969
2017-09-05T23:51:07.296Z,98968
2017-09-05T23:53:35.389Z,98961
2017-09-05T23:56:03.479Z,98955
2017-09-05T23:58:31.584Z,98944
